createdAt,value
2022-08-30T00:01:23.418Z,101069.75
2022-08-30T00:03:55.403Z,101080.16
2022-08-30T00:06:26.131Z,101080.16
2022-08-30T00:08:56.161Z,101087.75
2022-08-30T00:11:28.582Z,101086.59
2022-08-30T00:14:01.313Z,101083.81
2022-08-30T00:16:31.282Z,101090.59
2022-08-30T00:19:02.537Z,101090.19
2022-08-30T00:21:33.075Z,101086.25
2022-08-30T00:24:05.223Z,101082.66
2022-08-30T00:26:37.088Z,101077.88
2022-08-30T00:29:10.680Z,101081.50
2022-08-30T00:31:41.122Z,101091.09
2022-08-30T00:34:11.128Z,101091.50
2022-08-30T00:36:41.019Z,101094.69
2022-08-30T00:39:11.078Z,101095.13
2022-08-30T00:41:45.015Z,101099.50
2022-08-30T00:44:17.916Z,101102.28
2022-08-30T00:46:49.442Z,101088.34
2022-08-30T00:49:19.557Z,101097.13
2022-08-30T00:51:49.615Z,101090.72
2022-08-30T00:54:20.619Z,101090.72
2022-08-30T00:56:52.098Z,101086.72
2022-08-30T00:59:27.745Z,101088.34
2022-08-30T01:01:59.171Z,101088.75
2022-08-30T01:04:30.122Z,101085.94
2022-08-30T01:07:00.533Z,101090.34
2022-08-30T01:09:30.848Z,101086.31
2022-08-30T01:12:01.520Z,101089.13
2022-08-30T01:14:35.175Z,101084.38
2022-08-30T01:17:05.905Z,101092.31
2022-08-30T01:19:44.192Z,101095.97
2022-08-30T01:22:27.048Z,101093.19
2022-08-30T01:25:02.687Z,101095.16
2022-08-30T01:27:34.869Z,101099.97
2022-08-30T01:30:05.796Z,101097.16
2022-08-30T01:32:43.293Z,101100.75
2022-08-30T01:35:15.618Z,101103.13
2022-08-30T01:37:47.523Z,101102.72
2022-08-30T01:40:21.474Z,101099.09
2022-08-30T01:42:52.777Z,101107.47
2022-08-30T01:45:22.739Z,101106.69
2022-08-30T01:47:52.462Z,101107.09
2022-08-30T01:50:22.438Z,101105.09
2022-08-30T01:52:52.757Z,101103.09
2022-08-30T01:55:27.410Z,101105.13
2022-08-30T01:57:58.635Z,101105.13
2022-08-30T02:00:28.516Z,101103.94
2022-08-30T02:02:59.008Z,101103.94
2022-08-30T02:05:29.782Z,101100.34
2022-08-30T02:07:59.664Z,101106.72
2022-08-30T02:10:33.585Z,101108.66
2022-08-30T02:13:03.375Z,101102.69
2022-08-30T02:15:41.750Z,101103.09
2022-08-30T02:18:12.270Z,101100.78
2022-08-30T02:20:42.989Z,101098.78
2022-08-30T02:23:12.989Z,101088.38
2022-08-30T02:25:45.989Z,101094.75
2022-08-30T02:28:20.333Z,101098.72
2022-08-30T02:30:50.943Z,101101.53
2022-08-30T02:33:22.042Z,101101.94
2022-08-30T02:35:51.749Z,101094.38
2022-08-30T02:38:21.765Z,101086.81
2022-08-30T02:40:54.129Z,101093.19
2022-08-30T02:43:24.298Z,101097.16
2022-08-30T02:45:56.475Z,101091.59
2022-08-30T02:48:27.403Z,101091.56
2022-08-30T02:50:57.372Z,101091.94
2022-08-30T02:53:29.301Z,101083.16
2022-08-30T02:56:02.738Z,101082.03
2022-08-30T02:58:36.259Z,101078.44
2022-08-30T03:01:06.302Z,101081.22
2022-08-30T03:03:36.599Z,101079.22
2022-08-30T03:06:06.597Z,101074.44
2022-08-30T03:08:39.701Z,101086.78
2022-08-30T03:11:13.986Z,101078.44
2022-08-30T03:13:45.556Z,101079.66
2022-08-30T03:16:15.215Z,101083.25
2022-08-30T03:18:45.172Z,101078.84
2022-08-30T03:21:18.760Z,101080.84
2022-08-30T03:23:49.209Z,101084.44
2022-08-30T03:26:22.208Z,101086.41
2022-08-30T03:28:51.908Z,101094.03
2022-08-30T03:31:21.845Z,101094.81
2022-08-30T03:33:52.056Z,101092.44
2022-08-30T03:36:22.382Z,101091.25
2022-08-30T03:38:52.414Z,101097.63
2022-08-30T03:41:25.454Z,101098.84
2022-08-30T03:44:00.212Z,101091.66
2022-08-30T03:46:37.502Z,101089.28
2022-08-30T03:49:07.905Z,101096.84
2022-08-30T03:51:39.466Z,101092.06
2022-08-30T03:54:10.059Z,101090.88
2022-08-30T03:56:42.692Z,101086.88
2022-08-30T03:59:13.277Z,101100.84
2022-08-30T04:01:48.106Z,101096.88
2022-08-30T04:04:21.198Z,101098.84
2022-08-30T04:06:51.940Z,101092.47
2022-08-30T04:09:22.306Z,101105.19
2022-08-30T04:11:55.074Z,101112.72
2022-08-30T04:14:25.077Z,101105.19
2022-08-30T04:17:01.248Z,101121.50
2022-08-30T04:19:31.419Z,101117.91
2022-08-30T04:22:01.495Z,101125.06
2022-08-30T04:24:31.711Z,101126.63
2022-08-30T04:27:05.650Z,101126.63
2022-08-30T04:29:36.799Z,101136.59
2022-08-30T04:32:07.589Z,101133.00
2022-08-30T04:34:37.976Z,101138.97
2022-08-30T04:37:10.030Z,101140.59
2022-08-30T04:39:43.703Z,101138.56
2022-08-30T04:42:17.382Z,101153.72
2022-08-30T04:44:50.649Z,101146.53
2022-08-30T04:47:22.688Z,101148.91
2022-08-30T04:49:52.883Z,101148.09
2022-08-30T04:52:23.111Z,101158.81
2022-08-30T04:55:01.732Z,101157.25
2022-08-30T04:57:38.292Z,101157.25
2022-08-30T05:00:12.066Z,101164.34
2022-08-30T05:02:45.475Z,101168.34
2022-08-30T05:05:28.476Z,101163.53
2022-08-30T05:07:58.542Z,101169.09
2022-08-30T05:10:29.848Z,101175.91
2022-08-30T05:13:02.443Z,101180.72
2022-08-30T05:15:32.544Z,101186.34
2022-08-30T05:18:02.542Z,101176.41
2022-08-30T05:20:32.391Z,101183.94
2022-08-30T05:23:02.418Z,101187.97
2022-08-30T05:25:36.026Z,101193.50
2022-08-30T05:28:09.256Z,101199.81
2022-08-30T05:30:40.525Z,101191.44
2022-08-30T05:33:10.536Z,101203.88
2022-08-30T05:35:43.505Z,101196.69
2022-08-30T05:38:16.064Z,101197.50
2022-08-30T05:40:46.952Z,101193.50
2022-08-30T05:43:19.580Z,101201.47
2022-08-30T05:45:49.412Z,101191.94
2022-08-30T05:48:20.798Z,101191.97
2022-08-30T05:50:50.732Z,101188.00
2022-08-30T05:53:20.455Z,101184.03
2022-08-30T05:55:50.231Z,101177.72
2022-08-30T05:58:22.654Z,101177.72
2022-08-30T06:00:52.606Z,101187.28
2022-08-30T06:03:22.563Z,101185.69
2022-08-30T06:05:52.310Z,101183.72
2022-08-30T06:08:22.363Z,101183.28
2022-08-30T06:10:52.696Z,101182.91
2022-08-30T06:13:25.159Z,101186.88
2022-08-30T06:15:55.209Z,101188.88
2022-08-30T06:18:28.509Z,101194.47
2022-08-30T06:20:58.617Z,101188.13
2022-08-30T06:23:29.199Z,101190.88
2022-08-30T06:25:59.275Z,101194.91
2022-08-30T06:28:33.980Z,101178.16
2022-08-30T06:31:03.826Z,101189.31
2022-08-30T06:33:33.915Z,101186.13
2022-08-30T06:36:06.520Z,101175.75
2022-08-30T06:38:37.125Z,101184.91
2022-08-30T06:41:09.368Z,101177.72
2022-08-30T06:43:48.152Z,101183.28
2022-08-30T06:46:21.300Z,101180.06
2022-08-30T06:48:53.421Z,101185.69
2022-08-30T06:51:29.828Z,101181.69
2022-08-30T06:54:00.084Z,101178.06
2022-08-30T06:56:31.231Z,101185.59
2022-08-30T06:59:04.297Z,101175.19
2022-08-30T07:01:34.543Z,101174.38
2022-08-30T07:04:04.904Z,101177.09
2022-08-30T07:06:36.119Z,101172.59
2022-08-30T07:09:06.608Z,101168.53
2022-08-30T07:11:41.304Z,101162.09
2022-08-30T07:14:14.626Z,101166.03
2022-08-30T07:16:44.481Z,101171.81
2022-08-30T07:19:20.783Z,101168.91
2022-08-30T07:21:51.921Z,101173.63
2022-08-30T07:24:22.924Z,101168.78
2022-08-30T07:26:54.498Z,101176.28
2022-08-30T07:29:27.162Z,101166.91
2022-08-30T07:31:57.375Z,101161.25
2022-08-30T07:34:27.600Z,101180.19
2022-08-30T07:36:57.523Z,101176.06
2022-08-30T07:39:27.330Z,101170.41
2022-08-30T07:42:02.480Z,101171.28
2022-08-30T07:44:36.051Z,101169.31
2022-08-30T07:47:05.917Z,101168.88
2022-08-30T07:49:37.094Z,101174.25
2022-08-30T07:52:07.485Z,101165.75
2022-08-30T07:54:43.302Z,101178.19
2022-08-30T07:57:16.017Z,101173.31
2022-08-30T07:59:49.725Z,101177.28
2022-08-30T08:02:19.594Z,101182.31
2022-08-30T08:04:51.952Z,101184.72
2022-08-30T08:07:29.889Z,101186.66
2022-08-30T08:10:01.294Z,101177.84
2022-08-30T08:12:31.289Z,101173.53
2022-08-30T08:15:08.268Z,101174.59
2022-08-30T08:17:39.063Z,101185.16
2022-08-30T08:20:09.883Z,101183.50
2022-08-30T08:22:40.351Z,101181.88
2022-08-30T08:25:11.296Z,101184.91
2022-08-30T08:27:40.942Z,101184.56
2022-08-30T08:30:14.647Z,101190.91
2022-08-30T08:32:46.778Z,101191.34
2022-08-30T08:35:17.493Z,101188.59
2022-08-30T08:37:47.233Z,101184.06
2022-08-30T08:40:19.961Z,101204.91
2022-08-30T08:43:00.401Z,101194.59
2022-08-30T08:45:44.862Z,101192.50
2022-08-30T08:48:22.868Z,101190.38
2022-08-30T08:51:05.203Z,101195.53
2022-08-30T08:53:46.901Z,101186.88
2022-08-30T08:56:19.170Z,101194.06
2022-08-30T08:58:53.700Z,101192.53
2022-08-30T09:01:30.135Z,101188.31
2022-08-30T09:04:03.412Z,101188.09
2022-08-30T09:06:49.186Z,101197.38
2022-08-30T09:09:22.539Z,101191.56
2022-08-30T09:11:52.735Z,101200.25
2022-08-30T09:14:30.152Z,101205.47
2022-08-30T09:17:06.613Z,101197.66
2022-08-30T09:19:43.170Z,101204.03
2022-08-30T09:22:23.604Z,101207.94
2022-08-30T09:24:55.509Z,101197.56
2022-08-30T09:27:30.428Z,101202.28
2022-08-30T09:30:14.185Z,101192.72
2022-08-30T09:32:55.245Z,101190.28
2022-08-30T09:35:28.885Z,101185.44
2022-08-30T09:38:01.056Z,101180.16
2022-08-30T09:40:38.718Z,101179.97
2022-08-30T09:43:11.880Z,101179.75
2022-08-30T09:45:45.246Z,101185.00
2022-08-30T09:48:33.164Z,101181.94
2022-08-30T09:51:41.888Z,101176.75
2022-08-30T09:54:22.702Z,101176.66
2022-08-30T09:57:05.538Z,101172.44
2022-08-30T09:59:55.727Z,101168.78
2022-08-30T10:02:40.883Z,101169.13
2022-08-30T10:05:20.564Z,101155.47
2022-08-30T10:08:01.763Z,101166.38
2022-08-30T10:10:37.925Z,101161.75
2022-08-30T10:13:24.111Z,101160.44
2022-08-30T10:16:00.959Z,101147.50
2022-08-30T10:18:36.808Z,101152.00
2022-08-30T10:24:10.937Z,101147.06
2022-08-30T10:26:52.123Z,101144.94
2022-08-30T10:29:29.964Z,101145.44
2022-08-30T10:32:08.665Z,101144.59
2022-08-30T10:34:42.268Z,101140.47
2022-08-30T10:37:20.903Z,101143.97
2022-08-30T10:39:56.439Z,101143.28
2022-08-30T10:42:30.044Z,101147.38
2022-08-30T10:45:05.826Z,101145.44
2022-08-30T10:47:44.286Z,101142.75
2022-08-30T10:50:19.599Z,101146.72
2022-08-30T10:52:57.695Z,101150.50
2022-08-30T10:55:31.295Z,101143.34
2022-08-30T10:58:03.395Z,101137.03
2022-08-30T11:00:41.269Z,101144.13
2022-08-30T11:03:48.572Z,101136.22
2022-08-30T11:06:29.341Z,101136.22
2022-08-30T11:09:28.222Z,101132.78
2022-08-30T11:12:22.539Z,101133.75
2022-08-30T11:14:55.398Z,101135.72
2022-08-30T11:17:30.387Z,101130.69
2022-08-30T11:20:03.340Z,101131.72
2022-08-30T11:22:38.998Z,101116.41
2022-08-30T11:25:14.945Z,101115.34
2022-08-30T11:27:48.851Z,101111.91
2022-08-30T11:30:52.231Z,101115.88
2022-08-30T11:33:45.570Z,101114.44
2022-08-30T11:36:53.448Z,101111.00
2022-08-30T11:40:07.306Z,101109.66
2022-08-30T11:42:49.248Z,101101.84
2022-08-30T11:45:52.641Z,101101.88
2022-08-30T11:48:55.422Z,101097.00
2022-08-30T11:51:43.734Z,101101.75
2022-08-30T11:54:24.633Z,101094.88
2022-08-30T11:57:05.554Z,101095.56
2022-08-30T11:59:50.499Z,101099.19
2022-08-30T12:02:50.478Z,101094.78
2022-08-30T12:05:51.739Z,101098.09
2022-08-30T12:09:02.717Z,101091.09
2022-08-30T12:12:10.675Z,101081.72
2022-08-30T12:14:58.331Z,101080.97
2022-08-30T12:17:48.431Z,101077.38
2022-08-30T12:20:30.318Z,101076.22
2022-08-30T12:23:19.733Z,101078.25
2022-08-30T12:25:51.831Z,101066.41
2022-08-30T12:28:26.707Z,101068.13
2022-08-30T12:31:12.903Z,101065.66
2022-08-30T12:33:48.084Z,101065.81
2022-08-30T12:36:40.282Z,101057.50
2022-08-30T12:39:17.692Z,101047.59
2022-08-30T12:41:49.598Z,101059.50
2022-08-30T12:44:24.570Z,101052.56
2022-08-30T12:47:03.895Z,101054.97
2022-08-30T12:49:39.358Z,101037.25
2022-08-30T12:52:23.334Z,101035.63
2022-08-30T12:54:54.108Z,101040.06
2022-08-30T12:57:40.935Z,101031.88
2022-08-30T13:00:14.702Z,101030.44
2022-08-30T13:02:52.797Z,101026.34
2022-08-30T13:05:52.742Z,101029.88
2022-08-30T13:08:27.839Z,101017.84
2022-08-30T13:11:08.333Z,101018.94
2022-08-30T13:13:44.738Z,101021.47
2022-08-30T13:16:29.460Z,101014.38
2022-08-30T13:19:29.778Z,101009.19
2022-08-30T13:22:02.284Z,101019.28
2022-08-30T13:24:32.797Z,101017.66
2022-08-30T13:27:11.559Z,101014.63
2022-08-30T13:29:41.365Z,101016.44
2022-08-30T13:32:13.934Z,101012.72
2022-08-30T13:34:47.609Z,101014.28
2022-08-30T13:40:14.067Z,101024.59
2022-08-30T13:42:44.408Z,101026.19
2022-08-30T13:48:06.415Z,101013.78
2022-08-30T13:50:39.159Z,101009.78
2022-08-30T13:53:09.428Z,101010.19
2022-08-30T13:55:40.782Z,101008.63
2022-08-30T13:58:13.760Z,101009.22
2022-08-30T14:00:43.939Z,101002.88
2022-08-30T14:03:13.634Z,101003.16
2022-08-30T14:05:49.213Z,101006.88
2022-08-30T14:14:43.305Z,101005.69
2022-08-30T14:17:14.166Z,101000.59
2022-08-30T14:19:43.942Z,100994.41
2022-08-30T14:22:19.989Z,100991.75
2022-08-30T14:24:49.854Z,101004.81
2022-08-30T14:27:19.661Z,100996.47
2022-08-30T14:29:52.702Z,100994.25
2022-08-30T14:32:25.486Z,100999.59
2022-08-30T14:34:58.162Z,100993.13
2022-08-30T14:37:31.971Z,100989.03
2022-08-30T14:40:03.057Z,100984.69
2022-08-30T14:42:33.062Z,100988.47
2022-08-30T14:45:04.641Z,100981.34
2022-08-30T14:47:34.559Z,100987.56
2022-08-30T14:50:05.805Z,100987.97
2022-08-30T14:52:39.529Z,100987.63
2022-08-30T14:55:13.059Z,100979.50
2022-08-30T14:57:43.364Z,100990.63
2022-08-30T15:00:16.233Z,100985.75
2022-08-30T15:02:47.805Z,100977.56
2022-08-30T15:05:20.057Z,100984.47
2022-08-30T15:07:54.682Z,100978.41
2022-08-30T15:10:27.751Z,100987.16
2022-08-30T15:12:57.616Z,100987.34
2022-08-30T15:15:27.800Z,100971.97
2022-08-30T15:17:57.654Z,100970.91
2022-08-30T15:20:27.956Z,100965.53
2022-08-30T15:23:00.480Z,100966.72
2022-08-30T15:25:30.937Z,100967.56
2022-08-30T15:28:01.105Z,100963.06
2022-08-30T15:30:31.066Z,100958.16
2022-08-30T15:33:03.136Z,100961.22
2022-08-30T15:35:33.055Z,100958.13
2022-08-30T15:38:05.800Z,100957.84
2022-08-30T15:40:35.766Z,100954.69
2022-08-30T15:43:05.852Z,100948.81
2022-08-30T15:45:35.852Z,100959.84
2022-08-30T15:48:06.722Z,100960.34
2022-08-30T15:50:36.975Z,100957.63
2022-08-30T15:53:10.708Z,100959.81
2022-08-30T15:55:41.140Z,100957.16
2022-08-30T15:58:11.428Z,100958.34
2022-08-30T16:00:44.887Z,100965.63
2022-08-30T16:03:15.314Z,100963.47
2022-08-30T16:05:45.428Z,100961.41
2022-08-30T16:08:19.386Z,100957.50
2022-08-30T16:10:51.929Z,100963.00
2022-08-30T16:13:21.928Z,100957.34
2022-08-30T16:15:54.811Z,100955.47
2022-08-30T16:18:24.735Z,100955.50
2022-08-30T16:21:08.898Z,100941.50
2022-08-30T16:23:44.278Z,100940.72
2022-08-30T16:26:18.336Z,100937.69
2022-08-30T16:28:48.805Z,100946.59
2022-08-30T16:31:20.402Z,100945.19
2022-08-30T16:33:52.664Z,100942.91
2022-08-30T16:36:23.258Z,100948.13
2022-08-30T16:38:58.316Z,100945.84
2022-08-30T16:41:29.711Z,100943.00
2022-08-30T16:44:06.085Z,100947.28
2022-08-30T16:46:42.856Z,100941.19
2022-08-30T16:49:14.071Z,100944.13
2022-08-30T16:51:44.753Z,100955.03
2022-08-30T16:54:17.696Z,100945.91
2022-08-30T16:56:47.479Z,100944.91
2022-08-30T16:59:18.952Z,100953.06
2022-08-30T17:01:49.253Z,100945.06
2022-08-30T17:04:19.910Z,100938.53
2022-08-30T17:06:50.822Z,100941.47
2022-08-30T17:09:23.584Z,100941.13
2022-08-30T17:11:57.527Z,100941.94
2022-08-30T17:14:29.468Z,100947.28
2022-08-30T17:17:00.438Z,100948.63
2022-08-30T17:19:30.858Z,100947.41
2022-08-30T17:22:01.311Z,100951.47
2022-08-30T17:24:38.489Z,100956.31
2022-08-30T17:27:10.776Z,100963.78
2022-08-30T17:29:43.638Z,100965.13
2022-08-30T17:32:13.648Z,100960.75
2022-08-30T17:34:44.691Z,100971.69
2022-08-30T17:37:20.047Z,100977.88
2022-08-30T17:39:53.476Z,100982.38
2022-08-30T17:42:23.230Z,100981.13
2022-08-30T17:45:06.685Z,100981.31
2022-08-30T17:47:37.216Z,100977.81
2022-08-30T17:50:08.131Z,100987.94
2022-08-30T17:55:44.005Z,100985.34
2022-08-30T17:58:17.138Z,100988.78
2022-08-30T18:00:54.342Z,100983.13
2022-08-30T18:03:25.630Z,100972.94
2022-08-30T18:05:58.594Z,100993.91
2022-08-30T18:08:30.157Z,100981.75
2022-08-30T18:11:08.169Z,100996.63
2022-08-30T18:13:41.332Z,100993.16
2022-08-30T18:16:11.915Z,101017.78
2022-08-30T18:18:44.055Z,101013.16
2022-08-30T18:21:16.753Z,101030.63
2022-08-30T18:23:51.301Z,101011.13
2022-08-30T18:26:28.025Z,101036.53
2022-08-30T18:28:59.782Z,101016.50
2022-08-30T18:31:33.941Z,101016.91
2022-08-30T18:34:03.995Z,101019.47
2022-08-30T18:36:34.270Z,101030.19
2022-08-30T18:39:04.351Z,101039.78
2022-08-30T18:41:41.602Z,101040.25
2022-08-30T18:44:27.125Z,101048.09
2022-08-30T18:47:32.128Z,101046.91
2022-08-30T18:49:57.055Z,101052.53
2022-08-30T18:52:28.932Z,101059.06
2022-08-30T18:55:08.160Z,101045.13
2022-08-30T18:58:30.477Z,101054.38
2022-08-30T19:01:26.417Z,101035.69
2022-08-30T19:04:22.483Z,101039.38
2022-08-30T19:07:42.776Z,101056.88
2022-08-30T19:10:16.653Z,101049.81
2022-08-30T19:12:52.965Z,101053.28
2022-08-30T19:15:27.861Z,101046.84
2022-08-30T19:17:58.076Z,101054.06
2022-08-30T19:20:32.149Z,101052.94
2022-08-30T19:23:09.559Z,101065.09
2022-08-30T19:25:40.413Z,101071.84
2022-08-30T19:28:10.429Z,101065.53
2022-08-30T19:30:43.733Z,101072.34
2022-08-30T19:33:13.559Z,101052.72
2022-08-30T19:39:17.790Z,101051.06
2022-08-30T19:41:55.163Z,101060.63
2022-08-30T19:44:36.437Z,101066.19
2022-08-30T19:47:34.370Z,101056.28
2022-08-30T19:50:39.987Z,101053.56
2022-08-30T19:53:14.308Z,101057.28
2022-08-30T19:56:03.908Z,101065.84
2022-08-30T19:58:43.591Z,101058.63
2022-08-30T20:01:33.570Z,101064.31
2022-08-30T20:05:10.934Z,101068.22
2022-08-30T20:15:14.038Z,101066.91
2022-08-30T20:18:22.011Z,101080.47
2022-08-30T20:21:36.847Z,101054.38
2022-08-30T20:24:17.571Z,101060.78
2022-08-30T20:27:12.971Z,101065.19
2022-08-30T20:29:55.075Z,101061.25
2022-08-30T20:32:53.737Z,101074.28
2022-08-30T20:35:27.030Z,101084.63
2022-08-30T20:38:08.024Z,101068.81
2022-08-30T20:40:53.182Z,101065.59
2022-08-30T20:43:30.678Z,101070.34
2022-08-30T20:46:14.835Z,101059.53
2022-08-30T20:48:49.564Z,101064.34
2022-08-30T20:51:23.428Z,101070.28
2022-08-30T20:53:56.004Z,101071.47
2022-08-30T20:56:30.109Z,101071.44
2022-08-30T20:59:02.215Z,101073.53
2022-08-30T21:01:34.425Z,101077.97
2022-08-30T21:04:06.286Z,101079.88
2022-08-30T21:06:53.407Z,101067.25
2022-08-30T21:09:44.643Z,101061.88
2022-08-30T21:12:21.499Z,101069.47
2022-08-30T21:15:15.600Z,101085.03
2022-08-30T21:18:08.927Z,101072.81
2022-08-30T21:20:42.010Z,101086.03
2022-08-30T21:23:12.841Z,101096.84
2022-08-30T21:25:44.108Z,101096.78
2022-08-30T21:28:17.227Z,101095.81
2022-08-30T21:30:47.892Z,101104.53
2022-08-30T21:33:20.733Z,101113.75
2022-08-30T21:36:02.765Z,101109.41
2022-08-30T21:38:32.671Z,101119.88
2022-08-30T21:41:03.796Z,101115.03
2022-08-30T21:43:36.424Z,101118.25
2022-08-30T21:46:08.960Z,101116.69
2022-08-30T21:48:39.758Z,101123.91
2022-08-30T21:51:10.688Z,101131.16
2022-08-30T21:53:43.640Z,101134.78
2022-08-30T21:56:20.785Z,101132.44
2022-08-30T21:58:58.319Z,101135.69
2022-08-30T22:01:30.303Z,101137.31
2022-08-30T22:04:02.280Z,101146.22
2022-08-30T22:06:33.981Z,101152.34
2022-08-30T22:09:07.976Z,101157.50
2022-08-30T22:11:45.275Z,101153.88
2022-08-30T22:14:19.300Z,101155.84
2022-08-30T22:16:51.889Z,101151.31
2022-08-30T22:19:23.479Z,101152.53
2022-08-30T22:22:01.065Z,101149.25
2022-08-30T22:24:32.741Z,101154.13
2022-08-30T22:27:09.639Z,101161.44
2022-08-30T22:29:42.623Z,101164.00
2022-08-30T22:32:12.884Z,101162.13
2022-08-30T22:34:42.839Z,101147.25
2022-08-30T22:37:15.358Z,101158.50
2022-08-30T22:39:45.334Z,101155.72
2022-08-30T22:42:16.184Z,101156.19
2022-08-30T22:44:54.577Z,101154.28
2022-08-30T22:47:26.694Z,101149.97
2022-08-30T22:49:58.977Z,101156.50
2022-08-30T22:52:31.666Z,101156.06
2022-08-30T22:55:01.423Z,101151.31
2022-08-30T22:57:34.372Z,101155.31
2022-08-30T23:00:12.164Z,101150.50
2022-08-30T23:02:45.045Z,101154.50
2022-08-30T23:05:15.860Z,101164.09
2022-08-30T23:07:46.419Z,101154.56
2022-08-30T23:10:19.551Z,101153.75
2022-08-30T23:12:52.665Z,101152.13
2022-08-30T23:15:25.333Z,101152.13
2022-08-30T23:17:56.754Z,101167.31
2022-08-30T23:20:29.992Z,101169.25
2022-08-30T23:22:59.658Z,101162.88
2022-08-30T23:25:45.005Z,101167.25
2022-08-30T23:28:27.323Z,101164.09
2022-08-30T23:31:12.187Z,101171.25
2022-08-30T23:33:54.615Z,101176.09
2022-08-30T23:36:38.202Z,101181.78
2022-08-30T23:39:21.381Z,101184.13
2022-08-30T23:42:06.173Z,101178.53
2022-08-30T23:44:48.495Z,101178.53
2022-08-30T23:47:33.287Z,101176.16
2022-08-30T23:50:15.378Z,101176.94
2022-08-30T23:52:57.783Z,101168.13
2022-08-30T23:55:40.103Z,101168.53
2022-08-30T23:58:22.641Z,101170.91
